sensor_id;sensor_type;location;lat;lon;timestamp;temperature;humidity
53294;DHT22;39181;53.440;5.644;2023-02-15T00:01:33;0.80;99.90
53294;DHT22;39181;53.440;5.644;2023-02-15T00:03:59;1.00;99.90
53294;DHT22;39181;53.440;5.644;2023-02-15T00:06:25;1.10;99.90
53294;DHT22;39181;53.440;5.644;2023-02-15T00:08:51;1.30;99.90
53294;DHT22;39181;53.440;5.644;2023-02-15T00:11:18;1.40;99.90
53294;DHT22;39181;53.440;5.644;2023-02-15T00:14:12;1.40;99.90
53294;DHT22;39181;53.440;5.644;2023-02-15T00:16:39;1.50;99.90
53294;DHT22;39181;53.440;5.644;2023-02-15T00:19:05;1.60;99.90
53294;DHT22;39181;53.440;5.644;2023-02-15T00:21:32;1.70;99.90
53294;DHT22;39181;53.440;5.644;2023-02-15T00:24:00;1.70;99.90
53294;DHT22;39181;53.440;5.644;2023-02-15T00:26:26;1.70;99.90
53294;DHT22;39181;53.440;5.644;2023-02-15T00:28:52;1.70;99.90
53294;DHT22;39181;53.440;5.644;2023-02-15T00:31:18;1.70;99.90
53294;DHT22;39181;53.440;5.644;2023-02-15T00:33:44;1.70;99.90
53294;DHT22;39181;53.440;5.644;2023-02-15T00:36:10;1.60;99.90
53294;DHT22;39181;53.440;5.644;2023-02-15T00:38:37;1.70;99.90
53294;DHT22;39181;53.440;5.644;2023-02-15T00:41:05;1.70;99.90
53294;DHT22;39181;53.440;5.644;2023-02-15T00:43:31;1.70;99.90
53294;DHT22;39181;53.440;5.644;2023-02-15T00:45:58;1.70;99.90
53294;DHT22;39181;53.440;5.644;2023-02-15T00:48:23;1.80;99.90
53294;DHT22;39181;53.440;5.644;2023-02-15T00:50:51;1.90;99.90
53294;DHT22;39181;53.440;5.644;2023-02-15T00:53:17;1.90;99.90
53294;DHT22;39181;53.440;5.644;2023-02-15T00:55:43;1.90;99.90
53294;DHT22;39181;53.440;5.644;2023-02-15T00:58:09;2.00;99.90
53294;DHT22;39181;53.440;5.644;2023-02-15T01:00:35;2.00;99.90
53294;DHT22;39181;53.440;5.644;2023-02-15T01:03:01;2.10;99.90
53294;DHT22;39181;53.440;5.644;2023-02-15T01:05:26;2.10;99.90
53294;DHT22;39181;53.440;5.644;2023-02-15T01:07:52;2.10;99.90
53294;DHT22;39181;53.440;5.644;2023-02-15T01:10:18;2.10;99.90
53294;DHT22;39181;53.440;5.644;2023-02-15T01:12:43;2.20;99.90
53294;DHT22;39181;53.440;5.644;2023-02-15T01:15:09;2.20;99.90
53294;DHT22;39181;53.440;5.644;2023-02-15T01:17:35;2.20;99.90
53294;DHT22;39181;53.440;5.644;2023-02-15T01:20:01;2.20;99.90
53294;DHT22;39181;53.440;5.644;2023-02-15T01:22:26;2.30;99.90
53294;DHT22;39181;53.440;5.644;2023-02-15T01:24:52;2.20;99.90
53294;DHT22;39181;53.440;5.644;2023-02-15T01:27:18;2.20;99.90
53294;DHT22;39181;53.440;5.644;2023-02-15T01:29:44;2.30;99.90
53294;DHT22;39181;53.440;5.644;2023-02-15T01:32:09;2.20;99.90
53294;DHT22;39181;53.440;5.644;2023-02-15T01:34:35;2.10;99.90
53294;DHT22;39181;53.440;5.644;2023-02-15T01:37:01;2.10;99.90
53294;DHT22;39181;53.440;5.644;2023-02-15T01:39:26;2.00;99.90
53294;DHT22;39181;53.440;5.644;2023-02-15T01:41:52;2.00;99.90
53294;DHT22;39181;53.440;5.644;2023-02-15T01:44:53;2.00;99.90
53294;DHT22;39181;53.440;5.644;2023-02-15T01:50:30;2.00;99.90
53294;DHT22;39181;53.440;5.644;2023-02-15T01:53:32;2.00;99.90
53294;DHT22;39181;53.440;5.644;2023-02-15T01:56:03;2.00;99.90
53294;DHT22;39181;53.440;5.644;2023-02-15T01:58:32;2.00;99.90
53294;DHT22;39181;53.440;5.644;2023-02-15T02:01:00;2.00;99.90
53294;DHT22;39181;53.440;5.644;2023-02-15T02:06:12;1.90;99.90
53294;DHT22;39181;53.440;5.644;2023-02-15T02:08:38;1.90;99.90
53294;DHT22;39181;53.440;5.644;2023-02-15T02:11:13;1.90;99.90
53294;DHT22;39181;53.440;5.644;2023-02-15T02:13:40;1.90;99.90
53294;DHT22;39181;53.440;5.644;2023-02-15T02:16:28;1.80;99.90
53294;DHT22;39181;53.440;5.644;2023-02-15T02:22:07;1.80;99.90
53294;DHT22;39181;53.440;5.644;2023-02-15T02:49:12;1.40;99.90
53294;DHT22;39181;53.440;5.644;2023-02-15T02:51:38;1.50;99.90
53294;DHT22;39181;53.440;5.644;2023-02-15T02:54:05;1.50;99.90
53294;DHT22;39181;53.440;5.644;2023-02-15T02:56:47;1.50;99.90
53294;DHT22;39181;53.440;5.644;2023-02-15T02:59:27;1.50;99.90
53294;DHT22;39181;53.440;5.644;2023-02-15T03:02:13;1.50;99.90
53294;DHT22;39181;53.440;5.644;2023-02-15T03:04:44;1.50;99.90
53294;DHT22;39181;53.440;5.644;2023-02-15T03:07:14;1.50;99.90
53294;DHT22;39181;53.440;5.644;2023-02-15T03:09:51;1.50;99.90
53294;DHT22;39181;53.440;5.644;2023-02-15T03:12:21;1.60;99.90
53294;DHT22;39181;53.440;5.644;2023-02-15T03:14:54;1.60;99.90
53294;DHT22;39181;53.440;5.644;2023-02-15T03:17:22;1.60;99.90
53294;DHT22;39181;53.440;5.644;2023-02-15T03:19:51;1.70;99.90
53294;DHT22;39181;53.440;5.644;2023-02-15T03:22:21;1.80;99.90
53294;DHT22;39181;53.440;5.644;2023-02-15T03:24:53;1.80;99.90
53294;DHT22;39181;53.440;5.644;2023-02-15T03:27:24;1.90;99.90
53294;DHT22;39181;53.440;5.644;2023-02-15T03:29:54;1.90;99.90
53294;DHT22;39181;53.440;5.644;2023-02-15T03:32:21;1.90;99.90
53294;DHT22;39181;53.440;5.644;2023-02-15T03:34:47;2.00;99.90
53294;DHT22;39181;53.440;5.644;2023-02-15T03:37:30;2.00;99.90
53294;DHT22;39181;53.440;5.644;2023-02-15T03:40:05;2.00;99.90
53294;DHT22;39181;53.440;5.644;2023-02-15T03:43:39;2.00;99.90
53294;DHT22;39181;53.440;5.644;2023-02-15T03:45:47;2.10;99.90
53294;DHT22;39181;53.440;5.644;2023-02-15T03:48:33;2.00;99.90
53294;DHT22;39181;53.440;5.644;2023-02-15T03:51:05;2.10;99.90
53294;DHT22;39181;53.440;5.644;2023-02-15T03:53:56;2.10;99.90
53294;DHT22;39181;53.440;5.644;2023-02-15T03:56:22;2.10;99.90
53294;DHT22;39181;53.440;5.644;2023-02-15T03:58:48;2.10;99.90
53294;DHT22;39181;53.440;5.644;2023-02-15T04:01:36;2.10;99.90
53294;DHT22;39181;53.440;5.644;2023-02-15T04:04:37;2.10;99.90
53294;DHT22;39181;53.440;5.644;2023-02-15T04:07:04;2.10;99.90
53294;DHT22;39181;53.440;5.644;2023-02-15T04:09:30;2.10;99.90
53294;DHT22;39181;53.440;5.644;2023-02-15T04:12:14;2.10;99.90
53294;DHT22;39181;53.440;5.644;2023-02-15T04:14:40;2.10;99.90
53294;DHT22;39181;53.440;5.644;2023-02-15T04:17:24;2.10;99.90
53294;DHT22;39181;53.440;5.644;2023-02-15T04:19:50;2.10;99.90
53294;DHT22;39181;53.440;5.644;2023-02-15T04:22:34;2.00;99.90
53294;DHT22;39181;53.440;5.644;2023-02-15T04:25:18;1.90;99.90
53294;DHT22;39181;53.440;5.644;2023-02-15T04:27:48;1.90;99.90
53294;DHT22;39181;53.440;5.644;2023-02-15T04:30:16;1.90;99.90
53294;DHT22;39181;53.440;5.644;2023-02-15T04:32:41;1.90;99.90
53294;DHT22;39181;53.440;5.644;2023-02-15T04:35:08;1.80;99.90
53294;DHT22;39181;53.440;5.644;2023-02-15T04:37:34;1.80;99.90
53294;DHT22;39181;53.440;5.644;2023-02-15T04:40:00;1.70;99.90
53294;DHT22;39181;53.440;5.644;2023-02-15T04:42:26;1.70;99.90
53294;DHT22;39181;53.440;5.644;2023-02-15T04:44:52;1.70;99.90
53294;DHT22;39181;53.440;5.644;2023-02-15T04:47:17;1.60;99.90
53294;DHT22;39181;53.440;5.644;2023-02-15T04:49:43;1.60;99.90
53294;DHT22;39181;53.440;5.644;2023-02-15T04:52:09;1.50;99.90
53294;DHT22;39181;53.440;5.644;2023-02-15T04:54:35;1.40;99.90
53294;DHT22;39181;53.440;5.644;2023-02-15T04:57:01;1.30;99.90
53294;DHT22;39181;53.440;5.644;2023-02-15T04:59:26;1.30;99.90
53294;DHT22;39181;53.440;5.644;2023-02-15T05:01:52;1.30;99.90
53294;DHT22;39181;53.440;5.644;2023-02-15T05:04:18;1.30;99.90
53294;DHT22;39181;53.440;5.644;2023-02-15T05:06:43;1.20;99.90
53294;DHT22;39181;53.440;5.644;2023-02-15T05:09:11;1.20;99.90
53294;DHT22;39181;53.440;5.644;2023-02-15T05:11:36;1.10;99.90
53294;DHT22;39181;53.440;5.644;2023-02-15T05:14:02;1.00;99.90
53294;DHT22;39181;53.440;5.644;2023-02-15T05:16:27;1.00;99.90
53294;DHT22;39181;53.440;5.644;2023-02-15T05:18:53;1.10;99.90
53294;DHT22;39181;53.440;5.644;2023-02-15T05:21:19;1.00;99.90
53294;DHT22;39181;53.440;5.644;2023-02-15T05:23:44;1.00;99.90
53294;DHT22;39181;53.440;5.644;2023-02-15T05:26:11;1.00;99.90
53294;DHT22;39181;53.440;5.644;2023-02-15T05:28:56;1.00;99.90
53294;DHT22;39181;53.440;5.644;2023-02-15T05:31:22;1.00;99.90
53294;DHT22;39181;53.440;5.644;2023-02-15T05:33:47;1.10;99.90
53294;DHT22;39181;53.440;5.644;2023-02-15T05:36:13;1.10;99.90
53294;DHT22;39181;53.440;5.644;2023-02-15T05:38:39;1.10;99.90
53294;DHT22;39181;53.440;5.644;2023-02-15T05:41:09;1.10;99.90
53294;DHT22;39181;53.440;5.644;2023-02-15T05:43:35;1.10;99.90
53294;DHT22;39181;53.440;5.644;2023-02-15T05:46:01;1.10;99.90
53294;DHT22;39181;53.440;5.644;2023-02-15T05:48:27;1.20;99.90
53294;DHT22;39181;53.440;5.644;2023-02-15T05:51:09;1.20;99.90
53294;DHT22;39181;53.440;5.644;2023-02-15T05:53:37;1.20;99.90
53294;DHT22;39181;53.440;5.644;2023-02-15T05:56:04;1.20;99.90
53294;DHT22;39181;53.440;5.644;2023-02-15T05:58:32;1.30;99.90
53294;DHT22;39181;53.440;5.644;2023-02-15T06:00:58;1.30;99.90
53294;DHT22;39181;53.440;5.644;2023-02-15T06:03:24;1.20;99.90
53294;DHT22;39181;53.440;5.644;2023-02-15T06:05:51;1.30;99.90
53294;DHT22;39181;53.440;5.644;2023-02-15T06:08:17;1.20;99.90
53294;DHT22;39181;53.440;5.644;2023-02-15T06:10:45;1.30;99.90
53294;DHT22;39181;53.440;5.644;2023-02-15T06:13:11;1.30;99.90
53294;DHT22;39181;53.440;5.644;2023-02-15T06:15:36;1.30;99.90
53294;DHT22;39181;53.440;5.644;2023-02-15T06:18:02;1.40;99.90
53294;DHT22;39181;53.440;5.644;2023-02-15T06:20:28;1.40;99.90
53294;DHT22;39181;53.440;5.644;2023-02-15T06:22:53;1.50;99.90
53294;DHT22;39181;53.440;5.644;2023-02-15T06:25:19;1.40;99.90
53294;DHT22;39181;53.440;5.644;2023-02-15T06:27:44;1.40;99.90
53294;DHT22;39181;53.440;5.644;2023-02-15T06:30:11;1.40;99.90
53294;DHT22;39181;53.440;5.644;2023-02-15T06:32:38;1.40;99.90
53294;DHT22;39181;53.440;5.644;2023-02-15T06:35:07;1.40;99.90
53294;DHT22;39181;53.440;5.644;2023-02-15T06:37:32;1.40;99.90
53294;DHT22;39181;53.440;5.644;2023-02-15T06:39:58;1.30;99.90
53294;DHT22;39181;53.440;5.644;2023-02-15T06:42:25;1.40;99.90
53294;DHT22;39181;53.440;5.644;2023-02-15T06:44:51;1.30;99.90
53294;DHT22;39181;53.440;5.644;2023-02-15T06:47:16;1.30;99.90
53294;DHT22;39181;53.440;5.644;2023-02-15T06:49:42;1.20;99.90
53294;DHT22;39181;53.440;5.644;2023-02-15T06:52:07;1.20;99.90
53294;DHT22;39181;53.440;5.644;2023-02-15T06:54:33;1.20;99.90
53294;DHT22;39181;53.440;5.644;2023-02-15T06:56:58;1.10;99.90
53294;DHT22;39181;53.440;5.644;2023-02-15T06:59:24;1.10;99.90
53294;DHT22;39181;53.440;5.644;2023-02-15T07:01:50;1.10;99.90
53294;DHT22;39181;53.440;5.644;2023-02-15T07:04:15;1.10;99.90
53294;DHT22;39181;53.440;5.644;2023-02-15T07:06:41;1.00;99.90
53294;DHT22;39181;53.440;5.644;2023-02-15T07:09:07;1.10;99.90
53294;DHT22;39181;53.440;5.644;2023-02-15T07:11:32;1.10;99.90
53294;DHT22;39181;53.440;5.644;2023-02-15T07:14:16;1.00;99.90
53294;DHT22;39181;53.440;5.644;2023-02-15T07:16:42;1.10;99.90
53294;DHT22;39181;53.440;5.644;2023-02-15T07:19:08;1.10;99.90
53294;DHT22;39181;53.440;5.644;2023-02-15T07:21:34;1.10;99.90
53294;DHT22;39181;53.440;5.644;2023-02-15T07:24:00;1.10;99.90
53294;DHT22;39181;53.440;5.644;2023-02-15T07:26:26;1.20;99.90
53294;DHT22;39181;53.440;5.644;2023-02-15T07:28:52;1.10;99.90
53294;DHT22;39181;53.440;5.644;2023-02-15T07:31:18;1.20;99.90
53294;DHT22;39181;53.440;5.644;2023-02-15T07:33:43;1.20;99.90
53294;DHT22;39181;53.440;5.644;2023-02-15T07:36:09;1.20;99.90
53294;DHT22;39181;53.440;5.644;2023-02-15T07:38:39;1.20;99.90
53294;DHT22;39181;53.440;5.644;2023-02-15T07:41:07;1.30;99.90
53294;DHT22;39181;53.440;5.644;2023-02-15T07:43:35;1.40;99.90
53294;DHT22;39181;53.440;5.644;2023-02-15T07:46:06;1.30;99.90
53294;DHT22;39181;53.440;5.644;2023-02-15T07:48:33;1.40;99.90
53294;DHT22;39181;53.440;5.644;2023-02-15T07:51:00;1.40;99.90
53294;DHT22;39181;53.440;5.644;2023-02-15T07:53:26;1.50;99.90
53294;DHT22;39181;53.440;5.644;2023-02-15T07:55:52;1.60;99.90
53294;DHT22;39181;53.440;5.644;2023-02-15T07:58:18;1.60;99.90
53294;DHT22;39181;53.440;5.644;2023-02-15T08:00:44;1.60;99.90
53294;DHT22;39181;53.440;5.644;2023-02-15T08:03:25;1.70;99.90
53294;DHT22;39181;53.440;5.644;2023-02-15T08:05:58;1.80;99.90
53294;DHT22;39181;53.440;5.644;2023-02-15T08:08:25;1.90;99.90
53294;DHT22;39181;53.440;5.644;2023-02-15T08:11:16;1.90;99.90
53294;DHT22;39181;53.440;5.644;2023-02-15T08:13:53;2.00;99.90
53294;DHT22;39181;53.440;5.644;2023-02-15T08:16:28;2.00;99.90
53294;DHT22;39181;53.440;5.644;2023-02-15T08:18:55;2.10;99.90
53294;DHT22;39181;53.440;5.644;2023-02-15T08:21:22;2.20;99.90
53294;DHT22;39181;53.440;5.644;2023-02-15T08:23:48;2.20;99.90
53294;DHT22;39181;53.440;5.644;2023-02-15T08:26:14;2.30;99.90
53294;DHT22;39181;53.440;5.644;2023-02-15T08:28:40;2.30;99.90
53294;DHT22;39181;53.440;5.644;2023-02-15T08:31:13;2.50;99.90
53294;DHT22;39181;53.440;5.644;2023-02-15T08:33:39;2.60;99.90
53294;DHT22;39181;53.440;5.644;2023-02-15T08:36:10;2.60;99.90
53294;DHT22;39181;53.440;5.644;2023-02-15T08:38:36;2.50;99.90
53294;DHT22;39181;53.440;5.644;2023-02-15T08:41:16;2.60;99.90
53294;DHT22;39181;53.440;5.644;2023-02-15T08:43:42;2.60;99.90
53294;DHT22;39181;53.440;5.644;2023-02-15T08:46:10;2.80;99.90
53294;DHT22;39181;53.440;5.644;2023-02-15T08:48:36;2.80;99.90
53294;DHT22;39181;53.440;5.644;2023-02-15T08:51:07;2.90;99.90
53294;DHT22;39181;53.440;5.644;2023-02-15T08:53:33;3.00;99.90
53294;DHT22;39181;53.440;5.644;2023-02-15T08:55:59;3.10;99.90
53294;DHT22;39181;53.440;5.644;2023-02-15T08:58:25;3.10;99.90
53294;DHT22;39181;53.440;5.644;2023-02-15T09:00:51;3.10;99.90
53294;DHT22;39181;53.440;5.644;2023-02-15T09:03:17;3.30;99.90
53294;DHT22;39181;53.440;5.644;2023-02-15T09:05:42;3.30;99.90
53294;DHT22;39181;53.440;5.644;2023-02-15T09:08:08;3.40;99.90
53294;DHT22;39181;53.440;5.644;2023-02-15T09:10:34;3.60;99.90
53294;DHT22;39181;53.440;5.644;2023-02-15T09:12:59;3.50;99.90
53294;DHT22;39181;53.440;5.644;2023-02-15T09:15:25;3.70;99.90
53294;DHT22;39181;53.440;5.644;2023-02-15T09:17:50;3.80;99.90
53294;DHT22;39181;53.440;5.644;2023-02-15T09:20:16;3.90;99.90
53294;DHT22;39181;53.440;5.644;2023-02-15T09:22:42;4.00;99.90
53294;DHT22;39181;53.440;5.644;2023-02-15T09:25:07;4.00;99.90
53294;DHT22;39181;53.440;5.644;2023-02-15T09:27:33;4.10;99.90
53294;DHT22;39181;53.440;5.644;2023-02-15T09:29:58;4.10;99.90
53294;DHT22;39181;53.440;5.644;2023-02-15T09:32:24;4.20;99.90
53294;DHT22;39181;53.440;5.644;2023-02-15T09:34:50;4.30;99.90
53294;DHT22;39181;53.440;5.644;2023-02-15T09:37:15;4.30;99.90
53294;DHT22;39181;53.440;5.644;2023-02-15T09:39:43;4.40;99.90
53294;DHT22;39181;53.440;5.644;2023-02-15T09:47:49;4.60;99.90
53294;DHT22;39181;53.440;5.644;2023-02-15T09:56:15;4.90;99.90
53294;DHT22;39181;53.440;5.644;2023-02-15T09:59:12;4.90;99.90
53294;DHT22;39181;53.440;5.644;2023-02-15T10:02:15;5.10;99.90
53294;DHT22;39181;53.440;5.644;2023-02-15T10:05:04;5.20;99.90
53294;DHT22;39181;53.440;5.644;2023-02-15T10:25:31;5.80;99.90
53294;DHT22;39181;53.440;5.644;2023-02-15T10:28:06;5.90;99.90
53294;DHT22;39181;53.440;5.644;2023-02-15T10:30:42;6.00;99.90
53294;DHT22;39181;53.440;5.644;2023-02-15T10:41:54;6.30;99.90
53294;DHT22;39181;53.440;5.644;2023-02-15T10:44:26;6.30;99.90
53294;DHT22;39181;53.440;5.644;2023-02-15T10:49:49;6.40;99.90
53294;DHT22;39181;53.440;5.644;2023-02-15T10:55:22;6.60;99.90
53294;DHT22;39181;53.440;5.644;2023-02-15T11:06:43;6.90;99.90
53294;DHT22;39181;53.440;5.644;2023-02-15T11:09:14;7.00;99.90
53294;DHT22;39181;53.440;5.644;2023-02-15T11:11:46;7.00;99.90
53294;DHT22;39181;53.440;5.644;2023-02-15T11:17:04;7.30;99.90
53294;DHT22;39181;53.440;5.644;2023-02-15T11:19:35;7.40;99.90
53294;DHT22;39181;53.440;5.644;2023-02-15T11:22:04;7.50;99.90
53294;DHT22;39181;53.440;5.644;2023-02-15T11:24:33;7.60;99.90
53294;DHT22;39181;53.440;5.644;2023-02-15T11:27:17;7.70;99.90
53294;DHT22;39181;53.440;5.644;2023-02-15T11:30:00;7.80;99.90
53294;DHT22;39181;53.440;5.644;2023-02-15T11:32:33;7.90;99.90
53294;DHT22;39181;53.440;5.644;2023-02-15T11:37:46;8.20;99.90
53294;DHT22;39181;53.440;5.644;2023-02-15T11:40:43;8.40;99.90
53294;DHT22;39181;53.440;5.644;2023-02-15T11:43:58;8.60;99.90
53294;DHT22;39181;53.440;5.644;2023-02-15T11:46:21;8.70;99.90
53294;DHT22;39181;53.440;5.644;2023-02-15T11:48:47;8.80;99.90
53294;DHT22;39181;53.440;5.644;2023-02-15T11:51:21;8.90;99.90
53294;DHT22;39181;53.440;5.644;2023-02-15T11:53:48;9.00;99.90
53294;DHT22;39181;53.440;5.644;2023-02-15T11:56:22;9.10;99.90
53294;DHT22;39181;53.440;5.644;2023-02-15T11:58:52;9.20;99.90
53294;DHT22;39181;53.440;5.644;2023-02-15T12:01:31;9.30;99.90
53294;DHT22;39181;53.440;5.644;2023-02-15T12:04:38;9.30;99.90
53294;DHT22;39181;53.440;5.644;2023-02-15T12:12:39;9.30;99.90
53294;DHT22;39181;53.440;5.644;2023-02-15T12:15:09;9.40;99.90
53294;DHT22;39181;53.440;5.644;2023-02-15T12:17:53;9.50;99.90
53294;DHT22;39181;53.440;5.644;2023-02-15T12:20:29;9.60;99.90
53294;DHT22;39181;53.440;5.644;2023-02-15T12:23:15;9.70;99.90
53294;DHT22;39181;53.440;5.644;2023-02-15T12:25:52;9.90;99.90
53294;DHT22;39181;53.440;5.644;2023-02-15T12:28:38;10.00;99.90
53294;DHT22;39181;53.440;5.644;2023-02-15T12:31:33;10.00;99.90
53294;DHT22;39181;53.440;5.644;2023-02-15T12:34:07;10.10;99.90
53294;DHT22;39181;53.440;5.644;2023-02-15T12:36:43;10.10;99.90
53294;DHT22;39181;53.440;5.644;2023-02-15T12:42:00;10.10;99.90
53294;DHT22;39181;53.440;5.644;2023-02-15T12:44:28;10.10;99.90
53294;DHT22;39181;53.440;5.644;2023-02-15T12:50:08;10.30;99.90
53294;DHT22;39181;53.440;5.644;2023-02-15T12:52:43;10.40;99.90
53294;DHT22;39181;53.440;5.644;2023-02-15T12:55:24;10.60;99.90
53294;DHT22;39181;53.440;5.644;2023-02-15T12:58:18;10.70;99.90
53294;DHT22;39181;53.440;5.644;2023-02-15T13:00:44;10.80;99.90
53294;DHT22;39181;53.440;5.644;2023-02-15T13:03:19;10.80;99.90
53294;DHT22;39181;53.440;5.644;2023-02-15T13:05:50;10.80;99.90
53294;DHT22;39181;53.440;5.644;2023-02-15T13:08:25;10.70;99.90
53294;DHT22;39181;53.440;5.644;2023-02-15T13:11:02;10.60;99.90
53294;DHT22;39181;53.440;5.644;2023-02-15T13:13:31;10.40;99.90
53294;DHT22;39181;53.440;5.644;2023-02-15T13:16:12;10.30;99.90
53294;DHT22;39181;53.440;5.644;2023-02-15T13:18:42;10.10;99.90
53294;DHT22;39181;53.440;5.644;2023-02-15T13:21:20;10.00;99.90
53294;DHT22;39181;53.440;5.644;2023-02-15T13:23:57;9.90;99.90
53294;DHT22;39181;53.440;5.644;2023-02-15T13:26:26;9.70;99.90
53294;DHT22;39181;53.440;5.644;2023-02-15T13:29:07;9.70;99.90
53294;DHT22;39181;53.440;5.644;2023-02-15T13:31:34;9.60;99.90
53294;DHT22;39181;53.440;5.644;2023-02-15T13:34:15;9.60;99.90
53294;DHT22;39181;53.440;5.644;2023-02-15T13:39:49;9.70;99.90
53294;DHT22;39181;53.440;5.644;2023-02-15T13:42:18;9.70;99.90
53294;DHT22;39181;53.440;5.644;2023-02-15T13:45:22;9.70;99.90
53294;DHT22;39181;53.440;5.644;2023-02-15T14:02:24;9.20;99.90
53294;DHT22;39181;53.440;5.644;2023-02-15T14:08:08;9.10;99.90
53294;DHT22;39181;53.440;5.644;2023-02-15T14:13:44;9.20;99.90
53294;DHT22;39181;53.440;5.644;2023-02-15T14:16:38;9.20;99.90
53294;DHT22;39181;53.440;5.644;2023-02-15T14:21:47;9.10;99.90
53294;DHT22;39181;53.440;5.644;2023-02-15T14:30:02;9.10;99.90
53294;DHT22;39181;53.440;5.644;2023-02-15T14:32:53;9.00;99.90
53294;DHT22;39181;53.440;5.644;2023-02-15T14:35:22;8.90;99.90
53294;DHT22;39181;53.440;5.644;2023-02-15T14:40:53;8.80;99.90
53294;DHT22;39181;53.440;5.644;2023-02-15T14:49:10;8.40;99.90
53294;DHT22;39181;53.440;5.644;2023-02-15T14:54:09;8.30;99.90
53294;DHT22;39181;53.440;5.644;2023-02-15T14:56:35;8.20;99.90
53294;DHT22;39181;53.440;5.644;2023-02-15T14:59:20;8.20;99.90
53294;DHT22;39181;53.440;5.644;2023-02-15T15:02:09;8.10;99.90
53294;DHT22;39181;53.440;5.644;2023-02-15T15:04:46;8.10;99.90
53294;DHT22;39181;53.440;5.644;2023-02-15T15:07:22;8.10;99.90
53294;DHT22;39181;53.440;5.644;2023-02-15T15:14:54;8.10;99.90
53294;DHT22;39181;53.440;5.644;2023-02-15T15:22:30;8.00;99.90
53294;DHT22;39181;53.440;5.644;2023-02-15T15:25:01;7.90;99.90
53294;DHT22;39181;53.440;5.644;2023-02-15T15:27:45;7.90;99.90
53294;DHT22;39181;53.440;5.644;2023-02-15T15:44:11;7.60;99.90
53294;DHT22;39181;53.440;5.644;2023-02-15T15:49:16;7.50;99.90
53294;DHT22;39181;53.440;5.644;2023-02-15T15:51:44;7.50;99.90
53294;DHT22;39181;53.440;5.644;2023-02-15T15:54:18;7.40;99.90
53294;DHT22;39181;53.440;5.644;2023-02-15T15:56:54;7.50;99.90
53294;DHT22;39181;53.440;5.644;2023-02-15T15:59:25;7.40;99.90
53294;DHT22;39181;53.440;5.644;2023-02-15T16:01:52;7.40;99.90
53294;DHT22;39181;53.440;5.644;2023-02-15T16:04:32;7.30;99.90
53294;DHT22;39181;53.440;5.644;2023-02-15T16:09:41;7.20;99.90
53294;DHT22;39181;53.440;5.644;2023-02-15T16:12:19;7.20;99.90
53294;DHT22;39181;53.440;5.644;2023-02-15T16:14:45;7.10;99.90
53294;DHT22;39181;53.440;5.644;2023-02-15T16:17:28;7.10;99.90
53294;DHT22;39181;53.440;5.644;2023-02-15T16:20:06;7.00;99.90
53294;DHT22;39181;53.440;5.644;2023-02-15T16:22:33;7.00;99.90
53294;DHT22;39181;53.440;5.644;2023-02-15T16:28:15;6.80;99.90
53294;DHT22;39181;53.440;5.644;2023-02-15T16:30:44;6.80;99.90
53294;DHT22;39181;53.440;5.644;2023-02-15T16:33:12;6.70;99.90
53294;DHT22;39181;53.440;5.644;2023-02-15T16:35:54;6.60;99.90
53294;DHT22;39181;53.440;5.644;2023-02-15T16:41:15;6.50;99.90
53294;DHT22;39181;53.440;5.644;2023-02-15T16:43:45;6.50;99.90
53294;DHT22;39181;53.440;5.644;2023-02-15T16:46:20;6.40;99.90
53294;DHT22;39181;53.440;5.644;2023-02-15T16:48:50;6.40;99.90
53294;DHT22;39181;53.440;5.644;2023-02-15T16:51:29;6.30;99.90
53294;DHT22;39181;53.440;5.644;2023-02-15T16:53:57;6.30;99.90
53294;DHT22;39181;53.440;5.644;2023-02-15T16:56:25;6.20;99.90
53294;DHT22;39181;53.440;5.644;2023-02-15T16:58:53;6.20;99.90
53294;DHT22;39181;53.440;5.644;2023-02-15T17:01:21;6.10;99.90
53294;DHT22;39181;53.440;5.644;2023-02-15T17:03:50;6.10;99.90
53294;DHT22;39181;53.440;5.644;2023-02-15T17:06:23;6.10;99.90
53294;DHT22;39181;53.440;5.644;2023-02-15T17:08:51;6.10;99.90
53294;DHT22;39181;53.440;5.644;2023-02-15T17:11:41;6.00;99.90
53294;DHT22;39181;53.440;5.644;2023-02-15T17:14:10;6.00;99.90
53294;DHT22;39181;53.440;5.644;2023-02-15T17:19:18;5.90;99.90
53294;DHT22;39181;53.440;5.644;2023-02-15T17:21:55;5.90;99.90
53294;DHT22;39181;53.440;5.644;2023-02-15T17:24:31;5.80;99.90
53294;DHT22;39181;53.440;5.644;2023-02-15T17:27:03;5.80;99.90
53294;DHT22;39181;53.440;5.644;2023-02-15T17:29:38;5.80;99.90
53294;DHT22;39181;53.440;5.644;2023-02-15T17:32:06;5.80;99.90
53294;DHT22;39181;53.440;5.644;2023-02-15T17:37:43;5.70;99.90
53294;DHT22;39181;53.440;5.644;2023-02-15T17:40:25;5.70;99.90
53294;DHT22;39181;53.440;5.644;2023-02-15T17:42:51;5.70;99.90
53294;DHT22;39181;53.440;5.644;2023-02-15T17:45:16;5.60;99.90
53294;DHT22;39181;53.440;5.644;2023-02-15T17:47:43;5.60;99.90
53294;DHT22;39181;53.440;5.644;2023-02-15T17:50:23;5.50;99.90
53294;DHT22;39181;53.440;5.644;2023-02-15T17:52:50;5.50;99.90
53294;DHT22;39181;53.440;5.644;2023-02-15T17:55:18;5.50;99.90
53294;DHT22;39181;53.440;5.644;2023-02-15T18:00:36;5.50;99.90
53294;DHT22;39181;53.440;5.644;2023-02-15T18:03:20;5.50;99.90
53294;DHT22;39181;53.440;5.644;2023-02-15T18:06:05;5.50;99.90
53294;DHT22;39181;53.440;5.644;2023-02-15T18:08:49;5.40;99.90
53294;DHT22;39181;53.440;5.644;2023-02-15T18:11:34;5.50;99.90
53294;DHT22;39181;53.440;5.644;2023-02-15T18:14:09;5.50;99.90
53294;DHT22;39181;53.440;5.644;2023-02-15T18:16:36;5.50;99.90
53294;DHT22;39181;53.440;5.644;2023-02-15T18:19:04;5.50;99.90
53294;DHT22;39181;53.440;5.644;2023-02-15T18:21:32;5.50;99.90
53294;DHT22;39181;53.440;5.644;2023-02-15T18:23:58;5.50;99.90
53294;DHT22;39181;53.440;5.644;2023-02-15T18:26:25;5.60;99.90
53294;DHT22;39181;53.440;5.644;2023-02-15T18:28:51;5.60;99.90
53294;DHT22;39181;53.440;5.644;2023-02-15T18:31:18;5.60;99.90
53294;DHT22;39181;53.440;5.644;2023-02-15T18:33:54;5.60;99.90
53294;DHT22;39181;53.440;5.644;2023-02-15T18:36:43;5.60;99.90
53294;DHT22;39181;53.440;5.644;2023-02-15T18:39:41;5.60;99.90
53294;DHT22;39181;53.440;5.644;2023-02-15T18:42:24;5.60;99.90
53294;DHT22;39181;53.440;5.644;2023-02-15T18:44:57;5.60;99.90
53294;DHT22;39181;53.440;5.644;2023-02-15T18:47:23;5.60;99.90
53294;DHT22;39181;53.440;5.644;2023-02-15T18:49:49;5.60;99.90
53294;DHT22;39181;53.440;5.644;2023-02-15T18:52:20;5.60;99.90
53294;DHT22;39181;53.440;5.644;2023-02-15T18:54:46;5.60;99.90
53294;DHT22;39181;53.440;5.644;2023-02-15T18:57:15;5.50;99.90
53294;DHT22;39181;53.440;5.644;2023-02-15T18:59:41;5.50;99.90
53294;DHT22;39181;53.440;5.644;2023-02-15T19:02:14;5.50;99.90
53294;DHT22;39181;53.440;5.644;2023-02-15T19:04:40;5.50;99.90
53294;DHT22;39181;53.440;5.644;2023-02-15T19:07:22;5.50;99.90
53294;DHT22;39181;53.440;5.644;2023-02-15T19:09:52;5.50;99.90
53294;DHT22;39181;53.440;5.644;2023-02-15T19:12:19;5.50;99.90
53294;DHT22;39181;53.440;5.644;2023-02-15T19:14:45;5.40;99.90
53294;DHT22;39181;53.440;5.644;2023-02-15T19:17:20;5.40;99.90
53294;DHT22;39181;53.440;5.644;2023-02-15T19:19:46;5.40;99.90
53294;DHT22;39181;53.440;5.644;2023-02-15T19:22:20;5.40;99.90